createdAt,value
2023-03-02T00:01:27.815Z,39.40
2023-03-02T00:03:59.586Z,48.43
2023-03-02T00:06:29.716Z,51.10
2023-03-02T00:09:00.502Z,36.33
2023-03-02T00:11:29.327Z,40.57
2023-03-02T00:13:57.467Z,33.60
2023-03-02T00:16:25.684Z,32.33
2023-03-02T00:18:53.861Z,34.97
2023-03-02T00:21:24.583Z,31.60
2023-03-02T00:23:52.804Z,32.07
2023-03-02T00:26:21.546Z,33.77
2023-03-02T00:28:49.740Z,32.20
2023-03-02T00:31:18.005Z,33.40
2023-03-02T00:33:46.179Z,33.80
2023-03-02T00:36:18.047Z,37.73
2023-03-02T00:38:48.367Z,31.43
2023-03-02T00:41:17.615Z,41.87
2023-03-02T00:43:45.954Z,35.23
2023-03-02T00:46:15.721Z,42.43
2023-03-02T00:48:43.896Z,36.20
2023-03-02T00:51:12.608Z,41.77
2023-03-02T00:53:42.362Z,32.20
2023-03-02T00:56:12.404Z,35.40
2023-03-02T00:58:45.689Z,33.33
2023-03-02T01:01:15.773Z,35.50
2023-03-02T01:03:48.012Z,35.10
2023-03-02T01:06:18.141Z,38.50
2023-03-02T01:08:46.732Z,38.90
2023-03-02T01:11:17.481Z,34.00
2023-03-02T01:13:45.988Z,32.07
2023-03-02T01:16:14.853Z,32.30
2023-03-02T01:18:43.223Z,31.60
2023-03-02T01:21:13.648Z,31.20
2023-03-02T01:23:42.472Z,34.30
2023-03-02T01:26:11.106Z,38.60
2023-03-02T01:28:40.748Z,35.77
2023-03-02T01:31:08.895Z,35.20
2023-03-02T01:33:37.032Z,38.20
2023-03-02T01:36:05.538Z,31.47
2023-03-02T01:38:33.803Z,36.27
2023-03-02T01:41:01.949Z,35.17
2023-03-02T01:43:30.236Z,33.80
2023-03-02T01:46:02.798Z,36.43
2023-03-02T01:48:49.754Z,34.70
2023-03-02T01:51:27.119Z,36.83
2023-03-02T01:54:01.898Z,35.23
2023-03-02T01:56:34.585Z,32.13
2023-03-02T01:59:08.292Z,35.13
2023-03-02T02:01:40.727Z,31.93
2023-03-02T02:04:09.217Z,38.37
2023-03-02T02:06:40.576Z,35.43
2023-03-02T02:09:13.845Z,34.77
2023-03-02T02:11:44.731Z,39.80
2023-03-02T02:14:13.566Z,39.40
2023-03-02T02:16:43.343Z,33.13
2023-03-02T02:19:19.462Z,42.57
2023-03-02T02:21:47.584Z,36.47
2023-03-02T02:24:21.988Z,38.53
2023-03-02T02:26:54.221Z,36.67
2023-03-02T02:29:26.044Z,34.87
2023-03-02T02:31:59.128Z,33.40
2023-03-02T02:34:32.088Z,36.33
2023-03-02T02:37:06.785Z,37.80
2023-03-02T02:39:38.525Z,36.20
2023-03-02T02:42:13.004Z,34.03
2023-03-02T02:44:41.409Z,31.60
2023-03-02T02:47:17.261Z,35.33
2023-03-02T02:49:46.016Z,32.97
2023-03-02T02:52:16.884Z,34.90
2023-03-02T02:54:47.703Z,35.80
2023-03-02T02:57:18.752Z,33.90
2023-03-02T02:59:50.315Z,33.03
2023-03-02T03:02:21.625Z,35.93
2023-03-02T03:04:50.336Z,37.47
2023-03-02T03:07:22.438Z,39.07
2023-03-02T03:09:58.697Z,38.80
2023-03-02T03:12:30.501Z,35.00
2023-03-02T03:14:59.268Z,37.63
2023-03-02T03:17:27.419Z,37.07
2023-03-02T03:20:06.550Z,35.93
2023-03-02T03:22:38.983Z,51.93
2023-03-02T03:25:09.691Z,37.87
2023-03-02T03:27:39.223Z,32.00
2023-03-02T03:30:08.448Z,38.00
2023-03-02T03:32:37.079Z,37.87
2023-03-02T03:35:08.810Z,35.40
2023-03-02T03:37:38.218Z,39.60
2023-03-02T03:40:09.537Z,34.90
2023-03-02T03:42:40.879Z,40.17
2023-03-02T03:45:09.761Z,39.43
2023-03-02T03:47:39.179Z,36.20
2023-03-02T03:50:10.705Z,32.30
2023-03-02T03:52:39.278Z,32.77
2023-03-02T03:55:16.320Z,40.47
2023-03-02T03:57:47.894Z,35.53
2023-03-02T04:00:18.386Z,38.30
2023-03-02T04:03:02.400Z,38.40
2023-03-02T04:05:32.794Z,31.87
2023-03-02T04:08:03.489Z,32.13
2023-03-02T04:10:32.767Z,35.47
2023-03-02T04:13:03.122Z,32.20
2023-03-02T04:15:32.508Z,34.40
2023-03-02T04:18:01.549Z,34.57
2023-03-02T04:20:31.107Z,36.80
2023-03-02T04:22:59.904Z,33.83
2023-03-02T04:25:30.084Z,35.37
2023-03-02T04:28:10.901Z,36.67
2023-03-02T04:30:41.267Z,33.40
2023-03-02T04:33:09.544Z,36.23
2023-03-02T04:35:38.384Z,34.33
2023-03-02T04:38:06.598Z,30.20
2023-03-02T04:40:35.112Z,34.07
2023-03-02T04:43:03.208Z,38.83
2023-03-02T04:45:32.995Z,39.97
2023-03-02T04:48:01.086Z,33.97
2023-03-02T04:50:29.181Z,34.60
2023-03-02T04:52:57.869Z,37.97
2023-03-02T04:55:28.301Z,40.70
2023-03-02T04:57:56.393Z,41.53
2023-03-02T05:00:25.152Z,46.20
2023-03-02T05:02:54.636Z,41.47
2023-03-02T05:05:25.437Z,43.30
2023-03-02T05:07:54.374Z,41.43
2023-03-02T05:10:23.551Z,46.33
2023-03-02T05:13:02.377Z,38.07
2023-03-02T05:15:34.698Z,43.50
2023-03-02T05:18:05.790Z,47.40
2023-03-02T05:20:34.462Z,48.17
2023-03-02T05:23:05.094Z,43.17
2023-03-02T05:25:35.372Z,41.43
2023-03-02T05:28:04.057Z,44.20
2023-03-02T05:30:37.465Z,43.80
2023-03-02T05:33:07.026Z,47.10
2023-03-02T05:35:35.382Z,45.43
2023-03-02T05:38:03.670Z,40.40
2023-03-02T05:40:32.528Z,41.00
2023-03-02T05:43:00.658Z,43.03
2023-03-02T05:45:33.770Z,44.13
2023-03-02T05:48:02.342Z,46.40
2023-03-02T05:50:33.200Z,41.67
2023-03-02T05:53:02.537Z,38.83
2023-03-02T05:55:31.072Z,45.90
2023-03-02T05:57:59.185Z,40.27
2023-03-02T06:00:27.443Z,51.83
2023-03-02T06:02:55.590Z,51.77
2023-03-02T06:05:24.596Z,49.40
2023-03-02T06:07:54.092Z,41.93
2023-03-02T06:10:22.241Z,45.57
2023-03-02T06:12:50.687Z,47.33
2023-03-02T06:15:19.459Z,43.30
2023-03-02T06:17:47.595Z,41.93
2023-03-02T06:20:18.295Z,42.77
2023-03-02T06:22:48.115Z,43.90
2023-03-02T06:25:20.750Z,43.23
2023-03-02T06:27:51.607Z,44.33
2023-03-02T06:30:23.031Z,36.57
2023-03-02T06:32:51.465Z,38.23
2023-03-02T06:35:20.055Z,39.40
2023-03-02T06:37:48.234Z,41.50
2023-03-02T06:40:17.925Z,46.40
2023-03-02T06:42:45.988Z,57.27
2023-03-02T06:45:14.177Z,61.63
2023-03-02T06:47:42.336Z,55.80
2023-03-02T06:50:12.220Z,50.00
2023-03-02T06:52:40.410Z,57.90
2023-03-02T06:55:09.593Z,69.83
2023-03-02T06:57:39.112Z,78.93
2023-03-02T07:00:10.064Z,92.57
2023-03-02T07:02:39.430Z,66.00
2023-03-02T07:05:08.683Z,68.23
2023-03-02T07:07:36.864Z,58.43
2023-03-02T07:10:05.350Z,52.67
2023-03-02T07:12:33.837Z,53.73
2023-03-02T07:15:03.816Z,50.17
2023-03-02T07:17:31.879Z,56.37
2023-03-02T07:19:59.973Z,55.27
2023-03-02T07:22:28.158Z,57.23
2023-03-02T07:24:56.248Z,87.63
2023-03-02T07:27:24.381Z,115.83
2023-03-02T07:29:52.535Z,86.73
2023-03-02T07:32:22.255Z,83.80
2023-03-02T07:34:50.742Z,59.70
2023-03-02T07:37:19.001Z,57.70
2023-03-02T07:39:49.013Z,58.30
2023-03-02T07:42:17.817Z,48.50
2023-03-02T07:44:49.118Z,44.97
2023-03-02T07:47:17.350Z,45.70
2023-03-02T07:49:46.902Z,49.40
2023-03-02T07:52:15.004Z,43.30
2023-03-02T07:54:43.244Z,40.00
2023-03-02T07:57:13.729Z,53.23
2023-03-02T07:59:42.156Z,41.90
2023-03-02T08:02:13.445Z,42.43
2023-03-02T08:04:42.140Z,39.93
2023-03-02T08:07:11.932Z,48.47
2023-03-02T08:09:40.427Z,48.10
2023-03-02T08:12:08.714Z,47.73
2023-03-02T08:14:37.289Z,48.87
2023-03-02T08:17:06.136Z,47.67
2023-03-02T08:19:34.855Z,47.43
2023-03-02T08:22:03.604Z,49.37
2023-03-02T08:24:33.387Z,48.10
2023-03-02T08:27:02.321Z,52.60
2023-03-02T08:29:31.263Z,51.00
2023-03-02T08:32:00.258Z,53.43
2023-03-02T08:34:28.477Z,47.23
2023-03-02T08:36:57.010Z,52.67
2023-03-02T08:39:25.420Z,54.93
2023-03-02T08:41:55.409Z,48.77
2023-03-02T08:44:23.540Z,55.17
2023-03-02T08:46:52.645Z,51.87
2023-03-02T08:49:21.237Z,55.70
2023-03-02T08:51:53.578Z,67.63
2023-03-02T08:54:22.338Z,54.43
2023-03-02T08:56:51.151Z,56.03
2023-03-02T08:59:21.690Z,55.37
2023-03-02T09:01:49.965Z,54.40
2023-03-02T09:04:18.213Z,54.60
2023-03-02T09:06:47.004Z,62.47
2023-03-02T09:09:16.260Z,63.03
2023-03-02T09:11:44.864Z,57.37
2023-03-02T09:14:13.426Z,67.13
2023-03-02T09:16:43.052Z,51.97
2023-03-02T09:19:12.788Z,68.10
2023-03-02T09:21:40.936Z,52.20
2023-03-02T09:24:09.674Z,55.70
2023-03-02T09:26:39.063Z,62.97
2023-03-02T09:29:07.906Z,54.43
2023-03-02T09:31:37.146Z,57.07
2023-03-02T09:34:07.290Z,51.90
2023-03-02T09:36:35.560Z,56.57
2023-03-02T09:39:08.529Z,56.60
2023-03-02T09:42:12.398Z,56.70
2023-03-02T09:45:33.860Z,52.17
2023-03-02T09:48:13.638Z,52.00
2023-03-02T09:50:53.328Z,57.13
2023-03-02T09:53:45.329Z,53.20
2023-03-02T09:56:17.083Z,55.03
2023-03-02T09:58:54.064Z,59.60
2023-03-02T10:01:33.623Z,55.50
2023-03-02T10:04:10.582Z,56.60
2023-03-02T10:06:40.181Z,52.67
2023-03-02T10:09:10.949Z,55.67
2023-03-02T10:11:55.902Z,50.67
2023-03-02T10:14:28.073Z,50.30
2023-03-02T10:17:09.381Z,58.30
2023-03-02T10:19:44.809Z,50.57
2023-03-02T10:22:20.909Z,54.17
2023-03-02T10:24:57.985Z,57.30
2023-03-02T10:27:32.113Z,54.63
2023-03-02T10:30:06.475Z,53.43
2023-03-02T10:32:38.889Z,57.77
2023-03-02T10:35:17.073Z,54.47
2023-03-02T10:37:46.616Z,54.53
2023-03-02T10:40:32.884Z,50.63
2023-03-02T10:43:02.067Z,62.23
2023-03-02T10:45:32.448Z,56.17
2023-03-02T10:48:04.874Z,53.23
2023-03-02T10:50:33.691Z,52.13
2023-03-02T10:53:05.261Z,56.47
2023-03-02T10:55:35.204Z,62.50
2023-03-02T10:58:06.551Z,54.90
2023-03-02T11:00:36.768Z,55.87
2023-03-02T11:03:07.960Z,53.00
2023-03-02T11:05:37.699Z,56.20
2023-03-02T11:08:10.800Z,64.80
2023-03-02T11:10:42.350Z,58.30
2023-03-02T11:13:19.060Z,53.77
2023-03-02T11:15:49.603Z,47.73
2023-03-02T11:18:26.232Z,51.43
2023-03-02T11:20:58.457Z,51.90
2023-03-02T11:23:45.164Z,61.63
2023-03-02T11:26:21.864Z,45.43
2023-03-02T11:29:00.838Z,51.27
2023-03-02T11:31:37.707Z,56.40
2023-03-02T11:34:29.682Z,53.83
2023-03-02T11:37:13.412Z,52.50
2023-03-02T11:39:59.285Z,53.47
2023-03-02T11:42:31.601Z,56.73
2023-03-02T11:45:03.701Z,58.97
2023-03-02T11:47:33.773Z,47.27
2023-03-02T11:53:01.330Z,50.13
2023-03-02T11:55:35.106Z,54.60
2023-03-02T11:58:05.025Z,45.90
2023-03-02T12:00:35.943Z,49.27
2023-03-02T12:03:07.005Z,52.73
2023-03-02T12:05:37.055Z,51.80
2023-03-02T12:08:07.643Z,50.60
2023-03-02T12:10:40.132Z,47.97
2023-03-02T12:13:16.383Z,56.73
2023-03-02T12:15:45.835Z,48.80
2023-03-02T12:18:29.066Z,42.17
2023-03-02T12:21:02.734Z,48.30
2023-03-02T12:23:31.925Z,46.40
2023-03-02T12:26:08.667Z,45.03
2023-03-02T12:28:39.694Z,45.63
2023-03-02T12:31:11.321Z,49.00
2023-03-02T12:33:44.464Z,50.70
2023-03-02T12:36:16.212Z,48.07
2023-03-02T12:38:51.325Z,50.13
2023-03-02T12:41:35.648Z,49.87
2023-03-02T12:44:17.710Z,51.63
2023-03-02T12:46:47.381Z,46.87
2023-03-02T12:49:36.379Z,46.10
2023-03-02T12:52:24.318Z,52.73
2023-03-02T12:55:02.464Z,53.40
2023-03-02T12:57:32.005Z,51.03
2023-03-02T13:00:03.657Z,50.70
2023-03-02T13:02:33.241Z,52.30
2023-03-02T13:05:03.873Z,50.80
2023-03-02T13:07:37.622Z,52.60
2023-03-02T13:10:10.624Z,50.37
2023-03-02T13:12:46.268Z,50.80
2023-03-02T13:15:17.585Z,55.00
2023-03-02T13:17:53.370Z,54.70
2023-03-02T13:20:23.578Z,54.87
2023-03-02T13:22:51.990Z,55.80
2023-03-02T13:25:25.093Z,49.30
2023-03-02T13:27:55.542Z,59.10
2023-03-02T13:30:28.004Z,51.07
2023-03-02T13:33:01.667Z,59.90
2023-03-02T13:35:31.696Z,48.97
2023-03-02T13:38:04.511Z,56.23
2023-03-02T13:40:41.533Z,54.10
2023-03-02T13:43:31.494Z,54.57
2023-03-02T13:46:01.432Z,52.30
2023-03-02T13:48:30.590Z,52.20
2023-03-02T13:51:01.233Z,52.70
2023-03-02T13:53:34.519Z,46.83
2023-03-02T13:56:02.864Z,50.77
2023-03-02T13:58:38.239Z,43.83
2023-03-02T14:01:07.803Z,45.27
2023-03-02T14:03:35.983Z,46.47
2023-03-02T14:06:06.057Z,52.43
2023-03-02T14:08:34.187Z,50.90
2023-03-02T14:11:04.374Z,47.63
2023-03-02T14:13:38.870Z,46.27
2023-03-02T14:16:07.925Z,54.60
2023-03-02T14:18:40.046Z,47.80
2023-03-02T14:21:14.823Z,49.97
2023-03-02T14:23:43.278Z,48.03
2023-03-02T14:26:28.512Z,55.63
2023-03-02T14:29:05.402Z,53.33
2023-03-02T14:31:34.668Z,54.23
2023-03-02T14:34:03.122Z,46.77
2023-03-02T14:36:33.598Z,53.40
2023-03-02T14:39:04.048Z,48.17
2023-03-02T14:41:38.331Z,49.43
2023-03-02T14:44:12.858Z,48.40
2023-03-02T14:46:41.025Z,51.10
2023-03-02T14:49:09.153Z,45.73
2023-03-02T14:51:40.006Z,43.97
2023-03-02T14:54:13.958Z,46.57
2023-03-02T14:56:43.429Z,51.07
2023-03-02T14:59:14.873Z,48.67
2023-03-02T15:01:44.564Z,49.23
2023-03-02T15:04:12.768Z,49.83
2023-03-02T15:06:43.392Z,51.57
2023-03-02T15:09:12.160Z,49.70
2023-03-02T15:11:40.313Z,52.73
2023-03-02T15:14:08.405Z,49.53
2023-03-02T15:16:37.857Z,54.13
2023-03-02T15:19:06.207Z,46.10
2023-03-02T15:21:34.513Z,51.60
2023-03-02T15:24:04.129Z,51.30
2023-03-02T15:26:32.350Z,48.57
2023-03-02T15:29:00.435Z,49.47
2023-03-02T15:31:29.161Z,50.13
2023-03-02T15:33:58.983Z,55.27
2023-03-02T15:36:27.284Z,51.00
2023-03-02T15:38:55.677Z,54.47
2023-03-02T15:41:23.798Z,48.97
2023-03-02T15:43:52.215Z,44.53
2023-03-02T15:46:20.957Z,51.00
2023-03-02T15:48:49.174Z,45.07
2023-03-02T15:51:18.774Z,44.80
2023-03-02T15:53:47.218Z,49.43
2023-03-02T15:56:17.060Z,50.13
2023-03-02T15:58:48.024Z,49.20
2023-03-02T16:01:17.192Z,46.87
2023-03-02T16:03:46.435Z,51.57
2023-03-02T16:06:15.864Z,51.30
2023-03-02T16:08:45.484Z,56.73
2023-03-02T16:11:18.735Z,48.80
2023-03-02T16:13:47.227Z,47.53
2023-03-02T16:16:15.651Z,50.80
2023-03-02T16:18:43.769Z,50.30
2023-03-02T16:21:14.461Z,46.57
2023-03-02T16:23:42.678Z,50.70
2023-03-02T16:26:15.385Z,58.33
2023-03-02T16:28:44.097Z,55.03
2023-03-02T16:31:14.798Z,53.80
2023-03-02T16:33:43.211Z,51.37
2023-03-02T16:36:12.730Z,47.50
2023-03-02T16:38:41.512Z,51.27
2023-03-02T16:41:15.885Z,45.23
2023-03-02T16:43:46.824Z,48.60
2023-03-02T16:46:15.318Z,54.90
2023-03-02T16:48:44.264Z,48.50
2023-03-02T16:51:12.846Z,53.63
2023-03-02T16:53:41.681Z,48.60
2023-03-02T16:56:10.837Z,46.37
2023-03-02T16:58:41.479Z,57.00
2023-03-02T17:01:11.576Z,48.63
2023-03-02T17:03:39.880Z,43.80
2023-03-02T17:06:09.526Z,46.87
2023-03-02T17:08:38.899Z,53.37
2023-03-02T17:11:07.536Z,51.50
2023-03-02T17:13:35.943Z,56.63
2023-03-02T17:16:06.332Z,72.30
2023-03-02T17:18:34.951Z,62.83
2023-03-02T17:21:04.492Z,65.03
2023-03-02T17:23:32.703Z,80.87
2023-03-02T17:26:00.939Z,73.70
2023-03-02T17:28:29.538Z,66.33
2023-03-02T17:30:58.109Z,68.47
2023-03-02T17:33:29.533Z,71.33
2023-03-02T17:35:57.640Z,61.70
2023-03-02T17:38:25.782Z,74.67
2023-03-02T17:40:53.879Z,82.20
2023-03-02T17:43:22.048Z,81.73
2023-03-02T17:45:50.236Z,65.87
2023-03-02T17:48:20.331Z,71.00
2023-03-02T17:50:49.811Z,69.20
2023-03-02T17:53:17.931Z,71.33
2023-03-02T17:55:46.309Z,79.27
2023-03-02T17:58:15.404Z,80.03
2023-03-02T18:00:43.577Z,79.83
2023-03-02T18:03:11.784Z,77.03
2023-03-02T18:05:39.975Z,69.00
2023-03-02T18:08:09.559Z,79.67
2023-03-02T18:10:37.682Z,76.00
2023-03-02T18:13:05.952Z,79.07
2023-03-02T18:15:34.210Z,69.83
2023-03-02T18:18:02.386Z,77.20
2023-03-02T18:20:30.580Z,71.50
2023-03-02T18:22:59.105Z,77.20
2023-03-02T18:25:29.165Z,68.10
2023-03-02T18:27:57.689Z,67.40
2023-03-02T18:30:26.002Z,58.40
2023-03-02T18:32:54.194Z,54.13
2023-03-02T18:35:22.806Z,53.60
2023-03-02T18:37:51.431Z,50.50
2023-03-02T18:40:20.074Z,52.23
2023-03-02T18:42:49.551Z,47.20
2023-03-02T18:45:22.670Z,49.40
2023-03-02T18:47:50.853Z,48.07
2023-03-02T18:50:19.602Z,51.90
2023-03-02T18:52:47.921Z,64.40
2023-03-02T18:55:16.035Z,58.73
2023-03-02T18:57:44.564Z,65.50
2023-03-02T19:00:18.785Z,59.90
2023-03-02T19:02:47.055Z,68.17
2023-03-02T19:05:15.159Z,66.53
2023-03-02T19:07:43.259Z,74.77
2023-03-02T19:10:12.558Z,75.60
2023-03-02T19:12:40.715Z,87.57
2023-03-02T19:15:10.885Z,87.23
2023-03-02T19:17:42.663Z,78.50
2023-03-02T19:20:15.419Z,81.23
2023-03-02T19:22:44.011Z,71.60
2023-03-02T19:25:13.022Z,56.93
2023-03-02T19:27:41.199Z,56.77
2023-03-02T19:30:15.394Z,53.53
2023-03-02T19:32:44.858Z,46.60
2023-03-02T19:35:17.876Z,49.67
2023-03-02T19:37:46.196Z,51.90
2023-03-02T19:40:17.321Z,50.37
2023-03-02T19:42:46.160Z,50.33
2023-03-02T19:45:17.255Z,46.90
2023-03-02T19:47:47.083Z,53.63
2023-03-02T19:50:17.286Z,44.57
2023-03-02T19:52:45.898Z,49.50
2023-03-02T19:55:15.694Z,55.90
2023-03-02T19:57:43.980Z,63.87
2023-03-02T20:00:16.340Z,74.80
2023-03-02T20:02:46.168Z,80.43
2023-03-02T20:05:14.791Z,75.97
2023-03-02T20:07:43.656Z,62.83
2023-03-02T20:10:14.224Z,73.20
2023-03-02T20:12:42.674Z,68.83
2023-03-02T20:15:11.485Z,70.27
2023-03-02T20:17:39.555Z,73.00
2023-03-02T20:20:11.084Z,73.03
2023-03-02T20:22:39.174Z,77.50
2023-03-02T20:25:08.726Z,79.77
2023-03-02T20:27:36.902Z,71.47
2023-03-02T20:30:07.675Z,74.23
2023-03-02T20:32:35.841Z,57.63
2023-03-02T20:35:04.129Z,54.37
2023-03-02T20:37:33.693Z,44.37
2023-03-02T20:40:02.285Z,44.17
2023-03-02T20:42:33.987Z,44.80
2023-03-02T20:45:02.917Z,56.33
2023-03-02T20:47:31.427Z,60.40
2023-03-02T20:49:59.863Z,61.97
2023-03-02T20:52:28.465Z,61.13
2023-03-02T20:54:58.103Z,59.77
2023-03-02T20:57:26.251Z,56.70
2023-03-02T20:59:54.365Z,47.43
2023-03-02T21:02:23.164Z,52.03
2023-03-02T21:04:51.531Z,46.00
2023-03-02T21:07:19.629Z,48.10
2023-03-02T21:09:48.561Z,54.50
2023-03-02T21:12:18.254Z,55.10
2023-03-02T21:14:46.681Z,45.07
2023-03-02T21:17:15.120Z,49.90
2023-03-02T21:19:43.266Z,48.17
2023-03-02T21:22:11.414Z,53.67
2023-03-02T21:24:39.525Z,49.77
2023-03-02T21:27:08.459Z,48.57
2023-03-02T21:29:38.051Z,42.47
2023-03-02T21:32:07.739Z,59.40
2023-03-02T21:34:38.402Z,49.33
2023-03-02T21:37:07.059Z,55.13
2023-03-02T21:39:35.183Z,62.90
2023-03-02T21:42:03.719Z,68.27
2023-03-02T21:44:31.775Z,71.43
2023-03-02T21:47:01.276Z,61.00
2023-03-02T21:49:29.469Z,54.33
2023-03-02T21:51:57.928Z,50.93
2023-03-02T21:54:26.123Z,53.23
2023-03-02T21:56:54.200Z,54.83
2023-03-02T21:59:22.344Z,49.67
2023-03-02T22:01:50.553Z,47.00
2023-03-02T22:04:20.150Z,49.07
2023-03-02T22:06:48.246Z,44.73
2023-03-02T22:09:16.424Z,47.67
2023-03-02T22:11:45.832Z,46.10
2023-03-02T22:14:16.569Z,50.37
2023-03-02T22:16:47.843Z,58.07
2023-03-02T22:19:25.461Z,57.90
2023-03-02T22:21:55.067Z,54.93
2023-03-02T22:24:25.643Z,50.30
2023-03-02T22:26:59.518Z,51.63
2023-03-02T22:29:30.566Z,47.60
2023-03-02T22:32:07.672Z,44.33
2023-03-02T22:34:37.918Z,46.83
2023-03-02T22:37:12.652Z,44.77
2023-03-02T22:39:42.294Z,44.20
2023-03-02T22:42:14.531Z,42.97
2023-03-02T22:44:43.329Z,46.60
2023-03-02T22:47:16.577Z,43.80
2023-03-02T22:49:46.503Z,45.10
2023-03-02T22:52:17.412Z,44.17
2023-03-02T22:54:46.685Z,39.40
2023-03-02T22:57:32.240Z,42.17
2023-03-02T23:00:31.685Z,47.43
2023-03-02T23:02:59.859Z,44.53
2023-03-02T23:05:31.075Z,49.03
2023-03-02T23:08:15.829Z,41.30
2023-03-02T23:10:44.059Z,48.30
2023-03-02T23:13:14.201Z,40.57
2023-03-02T23:15:42.566Z,41.60
2023-03-02T23:18:18.130Z,50.53
2023-03-02T23:20:47.721Z,41.40
2023-03-02T23:23:16.165Z,35.13
2023-03-02T23:25:44.265Z,45.07
2023-03-02T23:28:12.419Z,42.83
2023-03-02T23:30:40.856Z,43.73
2023-03-02T23:33:09.108Z,50.83
2023-03-02T23:35:37.296Z,51.07
2023-03-02T23:38:06.757Z,50.00
2023-03-02T23:40:35.231Z,50.10
2023-03-02T23:43:03.629Z,59.50
2023-03-02T23:45:31.840Z,50.53
2023-03-02T23:47:59.983Z,46.60
2023-03-02T23:50:28.087Z,46.60
2023-03-02T23:52:56.213Z,44.27
2023-03-02T23:55:25.797Z,45.73
2023-03-02T23:57:53.927Z,49.20
